Fort Bridger, Wyoming
Current Conditions -  °F | °C
As of 4:15 AM on Tuesday 21 Oct 2014 (Local Time) from KFBR Reporting Station
Clear Clear  
Wind Chill: 53°   Ceiling: Unl
Heat Index: 53°   Visibility: NA
Dew Point: 34°   Wind: 8mph
Humidity: 50%   Direction: 250°WSW
Pressure: 30.06"   Gusts: NA
Location:  41.32°N, 110.39°W
Report Text: KFBR 211015Z AUTO 25007KT CLR 11/01 A3006 RMK AO2 T01140013 PWINO
Loading
Personal Weather Stations






























Interactive Weather Map
Tropical Storm Tracking
New forecast layout! Learn more

10-Day Weather Forecast

Advertisements
Track Severe Weather on mobile